Latest Coastal Weather Observations for Centre Island

IDD60701

Issued at 1:01 pm CST Sunday 31 July 2016 (issued every 10 minutes, with the page automatically refreshed every 10 minutes)

About coastal observations | Map of coastal stations | Coastal observations for NT | Marine services | Other Formats
Station Details ID: 014703 Name: CENTRE ISLAND Lat: -15.74 Lon: 136.82 Height: 12.2 m
Data from the previous 72 hours. | See also: Recent months at Centre Island
Date/Time
CST
Temp
°C
Wind Pressure Rain since
9am
mm
Weather Cloud Vis
km
Sea
Height
m
Swell
Dir  Spd
kts
Gust
kts
hPa Trend Height
m
Period
s
Dir
31/01:00pm 25.9 ESE 14 16 1013.6 - 0.0 - - - - - - -
31/12:30pm 26.0 ESE 14 18 1014.0 - 0.0 - - - - - - -
31/12:00pm 25.1 ESE 14 16 1014.5 - 0.0 - - - - - - -
31/11:30am 24.5 ESE 16 19 1015.0 - 0.0 - - - - - - -
31/11:00am 23.8 ESE 17 19 1015.3 - 0.0 - - - - - - -
31/10:30am 23.9 ESE 18 21 1015.5 - 0.0 - - - - - - -
31/10:00am 23.1 SE 15 17 1015.6 - 0.0 - - - - - - -
31/09:30am 22.3 SE 10 12 1015.8 - 0.0 - - - - - - -
31/09:00am 21.0 SSE 9 11 1015.7 - 0.2 - - - - - - -
31/08:30am 20.9 SE 9 12 1015.5 - 0.2 - - - - - - -
31/08:00am 20.3 SE 10 12 1015.1 - 0.2 - - - - - - -
31/07:30am 19.6 SSE 11 13 1014.7 - 0.2 - - - - - - -
31/07:00am 19.9 SE 13 17 1014.0 - 0.2 - - - - - - -
31/06:30am 19.0 SE 10 12 1013.7 - 0.2 - - - - - - -
31/06:00am 18.8 SSE 7 8 1013.6 - 0.2 - - - - - - -
31/05:30am 18.8 SSE 8 9 1013.4 - 0.2 - - - - - - -
31/05:00am 19.0 S 9 12 1013.2 - 0.2 - - - - - - -
31/04:30am 19.5 SE 6 7 1013.0 - 0.2 - - - - - - -
31/04:00am 19.5 SSE 5 7 1013.0 - 0.0 - - - - - - -
31/03:30am 19.6 SSE 6 7 1013.1 - 0.0 - - - - - - -
31/03:00am 19.9 S 7 8 1013.3 - 0.0 - - - - - - -
31/02:30am 20.8 SSE 6 8 1013.2 - 0.0 - - - - - - -
31/02:00am 20.7 SSE 5 6 1013.5 - 0.0 - - - - - - -
31/01:30am 20.4 ENE 6 7 1013.8 - 0.0 - - - - - - -
31/01:00am 20.7 NE 6 8 1014.1 - 0.0 - - - - - - -
31/12:30am 20.8 ENE 8 9 1014.1 - 0.0 - - - - - - -
31/12:00am 20.8 E 9 12 1014.1 - 0.0 - - - - - - -
 
Date/Time
CST
Temp
°C
Wind Pressure Rain since
9am
mm
Weather Cloud Vis
km
Sea
Height
m
Swell
Dir  Spd
kts
Gust
kts
hPa Trend Height
m
Period
s
Dir
30/11:30pm 20.8 SE 8 9 1014.4 - 0.0 - - - - - - -
30/11:00pm 20.6 ESE 6 7 1014.2 - 0.0 - - - - - - -
30/10:30pm 20.5 ESE 5 7 1014.1 - 0.0 - - - - - - -
30/10:00pm 20.6 E 4 6 1014.2 - 0.0 - - - - - - -
30/09:30pm 20.9 ENE 4 5 1014.1 - 0.0 - - - - - - -
30/09:00pm 21.3 ENE 6 7 1013.9 - 0.0 - - - - - - -
30/08:30pm 21.4 NE 4 5 1013.8 - 0.0 - - - - - - -
30/08:00pm 22.0 NE 6 7 1013.4 - 0.0 - - - - - - -
30/07:30pm 22.1 ENE 7 9 1013.0 - 0.0 - - - - - - -
30/07:00pm 22.5 ENE 8 9 1012.5 - 0.0 - - - - - - -
30/06:30pm 22.9 E 8 10 1012.2 - 0.0 - - - - - - -
30/06:00pm 24.0 E 10 12 1012.0 - 0.0 - - - - - - -
30/05:30pm 25.1 E 11 14 1012.1 - 0.0 - - - - - - -
30/05:00pm 25.9 E 11 12 1012.1 - 0.0 - - - - - - -
30/04:30pm 26.2 E 11 14 1012.0 - 0.0 - - - - - - -
30/04:00pm 26.4 E 9 11 1012.1 - 0.0 - - - - - - -
30/03:30pm 26.5 E 8 10 1012.4 - 0.0 - - - - - - -
30/03:00pm 26.8 ESE 12 15 1012.5 - 0.0 - - - - - - -
30/02:30pm 26.2 ESE 8 9 1012.9 - 0.0 - - - - - - -
30/02:00pm 27.0 ESE 9 11 1013.3 - 0.0 - - - - - - -
30/01:30pm 27.1 E 10 13 1013.9 - 0.0 - - - - - - -
30/01:00pm 26.4 E 12 15 1014.6 - 0.0 - - - - - - -
30/12:30pm 26.5 E 13 15 1015.1 - 0.0 - - - - - - -
30/12:00pm 25.5 ESE 15 19 1015.3 - 0.0 - - - - - - -
30/11:30am 25.2 ESE 15 18 1015.9 - 0.0 - - - - - - -
30/11:00am 24.1 ESE 18 21 1016.1 - 0.0 - - - - - - -
30/10:30am 23.6 ESE 20 23 1016.3 - 0.0 - - - - - - -
30/10:00am 22.7 ESE 22 25 1016.3 - 0.0 - - - - - - -
30/09:30am 22.2 SE 20 22 1016.4 - 0.0 - - - - - - -
30/09:00am 21.5 SE 20 23 1016.1 - 0.0 - - - - - - -
30/08:30am 20.8 ESE 21 24 1016.1 - 0.0 - - - - - - -
30/08:00am 20.4 ESE 20 23 1015.8 - 0.0 - - - - - - -
30/07:30am 20.1 SE 19 21 1015.4 - 0.0 - - - - - - -
30/07:00am 19.6 SE 16 19 1015.2 - 0.0 - - - - - - -
30/06:30am 19.7 SE 17 21 1014.8 - 0.0 - - - - - - -
30/06:00am 20.0 SE 17 21 1014.5 - 0.0 - - - - - - -
30/05:30am 19.9 SSE 18 21 1014.4 - 0.0 - - - - - - -
30/05:00am 20.6 SE 17 21 1014.4 - 0.0 - - - - - - -
30/04:30am 20.8 SE 17 21 1014.3 - 0.0 - - - - - - -
30/04:00am 21.0 SE 17 21 1014.5 - 0.0 - - - - - - -
30/03:30am 20.6 SE 14 18 1014.4 - 0.0 - - - - - - -
30/03:00am 20.6 SE 13 15 1014.5 - 0.0 - - - - - - -
30/02:30am 20.2 SE 12 14 1014.8 - 0.0 - - - - - - -
30/02:00am 20.1 SE 12 13 1014.8 - 0.0 - - - - - - -
30/01:30am 20.1 SE 12 14 1015.0 - 0.0 - - - - - - -
30/01:00am 20.6 SE 11 13 1015.2 - 0.0 - - - - - - -
30/12:30am 21.3 ESE 13 15 1015.3 - 0.0 - - - - - - -
30/12:00am 21.4 ESE 13 15 1015.3 - 0.0 - - - - - - -
 
Date/Time
CST
Temp
°C
Wind Pressure Rain since
9am
mm
Weather Cloud Vis
km
Sea
Height
m
Swell
Dir  Spd
kts
Gust
kts
hPa Trend Height
m
Period
s
Dir
29/11:30pm 21.3 ESE 13 16 1015.3 - 0.0 - - - - - - -
29/11:00pm 21.3 ESE 11 13 1015.5 - 0.0 - - - - - - -
29/10:30pm 21.3 ESE 12 14 1015.5 - 0.0 - - - - - - -
29/10:00pm 21.4 E 11 13 1015.5 - 0.0 - - - - - - -
29/09:30pm 21.5 E 9 11 1015.1 - 0.0 - - - - - - -
29/09:00pm 21.5 E 8 11 1015.1 - 0.0 - - - - - - -
29/08:30pm 21.8 E 8 10 1015.0 - 0.0 - - - - - - -
29/08:00pm 22.0 ENE 9 12 1014.7 - 0.0 - - - - - - -
29/07:30pm 22.2 ENE 8 10 1014.3 - 0.0 - - - - - - -
29/07:00pm 22.4 ENE 9 12 1014.1 - 0.0 - - - - - - -
29/06:30pm 22.8 E 11 13 1013.9 - 0.0 - - - - - - -
29/06:00pm 23.4 E 11 13 1013.6 - 0.0 - - - - - - -
29/05:30pm 24.3 E 11 13 1013.5 - 0.0 - - - - - - -
29/05:00pm 25.4 ENE 11 15 1013.5 - 0.0 - - - - - - -
29/04:30pm 26.0 ENE 11 13 1013.5 - 0.0 - - - - - - -
29/04:00pm 26.7 ENE 13 15 1013.4 - 0.0 - - - - - - -
29/03:30pm 26.7 E 12 15 1013.5 - 0.0 - - - - - - -
29/03:00pm 26.9 E 14 17 1013.8 - 0.0 - - - - - - -
29/02:30pm 26.1 ESE 18 21 1014.0 - 0.0 - - - - - - -
29/02:00pm 25.8 E 21 27 1014.3 - 0.0 - - - - - - -
29/01:30pm 26.2 E 20 24 1014.7 - 0.0 - - - - - - -
29/01:00pm 25.6 E 19 23 1015.2 - 0.0 - - - - - - -
29/12:30pm 25.4 ESE 18 21 1015.7 - 0.0 - - - - - - -
29/12:00pm 24.8 ESE 18 22 1016.0 - 0.0 - - - - - - -
29/11:30am 24.6 ESE 20 24 1016.5 - 0.0 - - - - - - -
29/11:00am 23.9 ESE 21 24 1016.8 - 0.0 - - - - - - -
29/10:30am 23.4 ESE 21 24 1017.1 - 0.0 - - - - - - -
29/10:00am 23.2 ESE 19 23 1017.3 - 0.0 - - - - - - -
29/09:30am 22.3 SE 11 14 1017.5 - 0.0 - - - - - - -
29/09:00am 21.3 SE 12 14 1017.3 - 0.0 - - - - - - -
29/08:30am 20.5 SE 12 15 1016.9 - 0.0 - - - - - - -
29/08:00am 19.8 SSE 13 15 1016.8 - 0.0 - - - - - - -
29/07:30am 19.2 SSE 13 16 1016.7 - 0.0 - - - - - - -
29/07:00am 18.8 SSE 14 15 1016.5 - 0.0 - - - - - - -
29/06:30am 18.8 SSE 15 17 1016.3 - 0.0 - - - - - - -
29/06:00am 19.5 SSE 14 17 1016.1 - 0.0 - - - - - - -
29/05:30am 19.8 SSE 14 18 1016.0 - 0.0 - - - - - - -
29/05:00am 20.5 SE 17 20 1015.9 - 0.0 - - - - - - -
29/04:30am 20.6 SE 16 20 1015.8 - 0.0 - - - - - - -
29/04:00am 20.7 SE 17 21 1015.6 - 0.0 - - - - - - -
29/03:30am 20.7 SE 18 21 1015.9 - 0.0 - - - - - - -
29/03:00am 21.2 SE 19 23 1016.1 - 0.0 - - - - - - -
29/02:30am 21.3 SE 20 23 1016.0 - 0.0 - - - - - - -
29/02:00am 21.2 SE 17 21 1016.0 - 0.0 - - - - - - -
29/01:30am 22.2 SE 20 25 1016.0 - 0.0 - - - - - - -
29/01:00am 23.1 SE 23 26 1016.1 - 0.0 - - - - - - -
29/12:30am 22.6 ESE 16 19 1016.5 - 0.0 - - - - - - -
29/12:00am 22.0 ESE 13 15 1016.6 - 0.0 - - - - - - -
 
Date/Time
CST
Temp
°C
Wind Pressure Rain since
9am
mm
Weather Cloud Vis
km
Sea
Height
m
Swell
Dir  Spd
kts
Gust
kts
hPa Trend Height
m
Period
s
Dir
28/11:30pm 21.9 ESE 13 15 1016.7 - 0.0 - - - - - - -
28/11:00pm 22.1 ESE 13 15 1016.9 - 0.0 - - - - - - -
28/10:30pm 22.1 ESE 13 15 1016.9 - 0.0 - - - - - - -
28/10:00pm 22.3 E 11 13 1016.7 - 0.0 - - - - - - -
28/09:30pm 22.4 ESE 11 13 1016.7 - 0.0 - - - - - - -
28/09:00pm 22.5 ESE 11 13 1016.5 - 0.0 - - - - - - -
28/08:30pm 22.7 ESE 9 11 1016.3 - 0.0 - - - - - - -
28/08:00pm 22.8 E 11 13 1016.1 - 0.0 - - - - - - -
28/07:30pm 23.1 E 13 14 1015.7 - 0.0 - - - - - - -
28/07:00pm 23.3 E 13 15 1015.4 - 0.0 - - - - - - -
28/06:30pm 23.7 E 13 15 1015.2 - 0.0 - - - - - - -
28/06:00pm 24.3 E 15 18 1014.7 - 0.0 - - - - - - -
28/05:30pm 24.9 E 14 16 1014.5 - 0.0 - - - - - - -
28/05:00pm 25.8 E 16 20 1014.3 - 0.0 - - - - - - -
28/04:30pm 25.8 ESE 21 25 1014.1 - 0.0 - - - - - - -
28/04:00pm 26.1 ESE 21 25 1014.1 - 0.0 - - - - - - -
28/03:30pm 26.2 ESE 21 25 1014.2 - 0.0 - - - - - - -
28/03:00pm 26.5 ESE 22 25 1014.2 - 0.0 - - - - - - -
28/02:30pm 26.3 ESE 23 27 1014.5 - 0.0 - - - - - - -
28/02:00pm 26.3 ESE 21 26 1014.7 - 0.0 - - - - - - -
28/01:30pm 26.0 ESE 22 25 1015.1 - 0.0 - - - - - - -

Other Formats:

Comma delimited format used in spreadsheet applications
http://www.bom.gov.au/fwo/IDD60701/IDD60701.94248.axf

JavaScript Object Notation format (JSON) in row-major order
http://www.bom.gov.au/fwo/IDD60701/IDD60701.94248.json